createdAt,value
2023-05-25T00:00:31.584Z,35.15
2023-05-25T00:01:31.660Z,35.16
2023-05-25T00:02:31.776Z,35.11
2023-05-25T00:03:32.468Z,35.10
2023-05-25T00:04:31.927Z,35.10
2023-05-25T00:05:31.912Z,35.04
2023-05-25T00:06:31.957Z,35.10
2023-05-25T00:07:32.019Z,35.07
2023-05-25T00:08:32.073Z,35.07
2023-05-25T00:09:32.138Z,35.10
2023-05-25T00:10:32.188Z,35.05
2023-05-25T00:11:32.276Z,35.08
2023-05-25T00:12:32.328Z,35.02
2023-05-25T00:13:32.410Z,35.05
2023-05-25T00:14:32.459Z,35.05
2023-05-25T00:15:32.536Z,35.01
2023-05-25T00:16:32.606Z,34.95
2023-05-25T00:17:32.654Z,34.92
2023-05-25T00:18:32.701Z,34.92
2023-05-25T00:19:32.754Z,34.96
2023-05-25T00:20:32.882Z,34.92
2023-05-25T00:21:32.889Z,34.97
2023-05-25T00:22:32.930Z,34.92
2023-05-25T00:23:33.008Z,34.92
2023-05-25T00:24:33.053Z,34.93
2023-05-25T00:25:33.117Z,34.90
2023-05-25T00:26:33.183Z,34.91
2023-05-25T00:27:33.247Z,34.91
2023-05-25T00:28:33.287Z,34.90
2023-05-25T00:29:33.355Z,34.92
2023-05-25T00:30:33.451Z,34.95
2023-05-25T00:31:33.654Z,34.91
2023-05-25T00:32:33.556Z,34.88
2023-05-25T00:33:33.604Z,34.92
2023-05-25T00:34:33.663Z,34.91
2023-05-25T00:35:33.801Z,34.90
2023-05-25T00:36:33.791Z,34.85
2023-05-25T00:37:33.836Z,34.82
2023-05-25T00:38:33.904Z,34.79
2023-05-25T00:39:33.980Z,34.79
2023-05-25T00:40:34.026Z,34.80
2023-05-25T00:41:34.092Z,34.80
2023-05-25T00:42:34.163Z,34.76
2023-05-25T00:43:34.213Z,34.72
2023-05-25T00:44:34.281Z,34.72
2023-05-25T00:45:34.340Z,34.75
2023-05-25T00:46:34.489Z,34.68
2023-05-25T00:47:34.517Z,34.71
2023-05-25T00:48:34.511Z,34.64
2023-05-25T00:49:34.577Z,34.69
2023-05-25T00:50:34.621Z,34.64
2023-05-25T00:51:34.702Z,34.66
2023-05-25T00:52:34.765Z,34.68
2023-05-25T00:53:34.810Z,34.70
2023-05-25T00:54:34.880Z,34.70
2023-05-25T00:55:34.924Z,34.68
2023-05-25T00:56:34.990Z,34.69
2023-05-25T00:57:35.043Z,34.72
2023-05-25T00:58:35.100Z,34.74
2023-05-25T00:59:35.148Z,34.71
2023-05-25T01:00:35.220Z,34.67
2023-05-25T01:01:35.313Z,34.75
2023-05-25T01:02:35.397Z,34.75
2023-05-25T01:03:35.460Z,34.74
2023-05-25T01:04:35.430Z,34.75
2023-05-25T01:05:35.514Z,34.73
2023-05-25T01:06:35.569Z,34.77
2023-05-25T01:07:35.640Z,34.74
2023-05-25T01:08:35.707Z,34.78
2023-05-25T01:09:35.765Z,34.75
2023-05-25T01:10:35.821Z,34.74
2023-05-25T01:11:35.888Z,34.75
2023-05-25T01:12:35.933Z,34.81
2023-05-25T01:13:36.000Z,34.79
2023-05-25T01:14:36.056Z,34.79
2023-05-25T01:15:36.100Z,34.80
2023-05-25T01:16:36.194Z,34.78
2023-05-25T01:17:36.227Z,34.81
2023-05-25T01:18:36.242Z,34.83
2023-05-25T01:19:36.263Z,34.84
2023-05-25T01:20:36.344Z,34.83
2023-05-25T01:21:36.337Z,34.85
2023-05-25T01:22:36.386Z,34.84
2023-05-25T01:23:36.441Z,34.83
2023-05-25T01:24:36.495Z,34.84
2023-05-25T01:25:36.513Z,34.84
2023-05-25T01:26:36.566Z,34.81
2023-05-25T01:27:36.595Z,34.81
2023-05-25T01:28:36.619Z,34.85
2023-05-25T01:29:36.634Z,34.84
2023-05-25T01:30:36.714Z,34.84
2023-05-25T01:31:36.846Z,34.86
2023-05-25T01:32:36.810Z,34.82
2023-05-25T01:33:36.830Z,34.83
2023-05-25T01:34:36.855Z,34.79
2023-05-25T01:35:36.906Z,34.80
2023-05-25T01:36:36.966Z,34.80
2023-05-25T01:37:36.969Z,34.80
2023-05-25T01:38:37.023Z,34.78
2023-05-25T01:39:37.062Z,34.80
2023-05-25T01:40:37.075Z,34.80
2023-05-25T01:41:37.123Z,34.78
2023-05-25T01:42:37.148Z,34.76
2023-05-25T01:43:37.216Z,34.75
2023-05-25T01:44:37.251Z,34.82
2023-05-25T01:45:37.339Z,34.80
2023-05-25T01:46:37.331Z,34.79
2023-05-25T01:47:37.388Z,34.79
2023-05-25T01:48:37.366Z,34.79
2023-05-25T01:49:37.413Z,34.81
2023-05-25T01:50:37.434Z,34.76
2023-05-25T01:51:37.457Z,34.79
2023-05-25T01:52:37.487Z,34.76
2023-05-25T01:53:37.478Z,34.77
2023-05-25T01:54:37.533Z,34.79
2023-05-25T01:55:37.545Z,34.80
2023-05-25T01:56:37.543Z,34.85
2023-05-25T01:57:37.593Z,34.79
2023-05-25T01:58:37.597Z,34.83
2023-05-25T01:59:37.627Z,34.83
2023-05-25T02:00:37.669Z,34.86
2023-05-25T02:01:37.755Z,34.84
2023-05-25T02:02:37.733Z,34.88
2023-05-25T02:03:37.734Z,34.81
2023-05-25T02:04:37.769Z,34.76
2023-05-25T02:05:37.779Z,34.80
2023-05-25T02:06:37.833Z,34.81
2023-05-25T02:07:37.907Z,34.75
2023-05-25T02:08:37.970Z,34.75
2023-05-25T02:09:37.995Z,34.74
2023-05-25T02:10:38.081Z,34.69
2023-05-25T02:11:38.091Z,34.76
2023-05-25T02:12:38.132Z,34.70
2023-05-25T02:13:38.189Z,34.65
2023-05-25T02:14:38.208Z,34.67
2023-05-25T02:15:38.260Z,34.64
2023-05-25T02:16:38.335Z,34.64
2023-05-25T02:17:38.435Z,34.59
2023-05-25T02:18:38.419Z,34.52
2023-05-25T02:19:38.474Z,34.57
2023-05-25T02:20:38.517Z,34.54
2023-05-25T02:21:38.571Z,34.50
2023-05-25T02:22:38.628Z,34.50
2023-05-25T02:23:38.677Z,34.48
2023-05-25T02:24:38.718Z,34.50
2023-05-25T02:25:38.789Z,34.52
2023-05-25T02:26:38.832Z,34.48
2023-05-25T02:27:38.882Z,34.51
2023-05-25T02:28:38.920Z,34.50
2023-05-25T02:29:38.971Z,34.50
2023-05-25T02:30:39.039Z,34.49
2023-05-25T02:31:39.129Z,34.53
2023-05-25T02:32:39.144Z,34.53
2023-05-25T02:33:39.202Z,34.56
2023-05-25T02:34:39.220Z,34.56
2023-05-25T02:35:39.276Z,34.52
2023-05-25T02:36:39.328Z,34.52
2023-05-25T02:37:39.376Z,34.54
2023-05-25T02:38:39.414Z,34.48
2023-05-25T02:39:39.443Z,34.55
2023-05-25T02:40:39.497Z,34.56
2023-05-25T02:41:39.528Z,34.55
2023-05-25T02:42:39.563Z,34.57
2023-05-25T02:43:39.580Z,34.55
2023-05-25T02:44:39.649Z,34.52
2023-05-25T02:45:39.673Z,34.51
2023-05-25T02:46:39.736Z,34.54
2023-05-25T02:47:39.821Z,34.57
2023-05-25T02:48:39.819Z,34.55
2023-05-25T02:49:39.843Z,34.55
2023-05-25T02:50:39.889Z,34.57
2023-05-25T02:51:39.921Z,34.51
2023-05-25T02:52:39.958Z,34.56
2023-05-25T02:53:39.987Z,34.56
2023-05-25T02:54:40.029Z,34.59
2023-05-25T02:55:40.061Z,34.57
2023-05-25T02:56:40.095Z,34.53
2023-05-25T02:57:40.127Z,34.57
2023-05-25T02:58:40.150Z,34.52
2023-05-25T02:59:40.153Z,34.59
2023-05-25T03:00:40.187Z,34.62
2023-05-25T03:01:40.206Z,34.56
2023-05-25T03:02:40.222Z,34.62
2023-05-25T03:03:40.299Z,34.61
2023-05-25T03:04:40.257Z,34.59
2023-05-25T03:05:40.296Z,34.57
2023-05-25T03:06:40.331Z,34.61
2023-05-25T03:07:40.380Z,34.59
2023-05-25T03:08:40.411Z,34.62
2023-05-25T03:09:40.410Z,34.59
2023-05-25T03:10:40.430Z,34.57
2023-05-25T03:11:40.453Z,34.62
2023-05-25T03:12:40.483Z,34.61
2023-05-25T03:13:40.528Z,34.57
2023-05-25T03:14:40.540Z,34.61
2023-05-25T03:15:40.595Z,34.63
2023-05-25T03:16:40.652Z,34.61
2023-05-25T03:17:40.694Z,34.56
2023-05-25T03:18:40.696Z,34.56
2023-05-25T03:19:40.720Z,34.62
2023-05-25T03:20:40.822Z,34.58
2023-05-25T03:21:40.808Z,34.57
2023-05-25T03:22:40.852Z,34.59
2023-05-25T03:23:40.921Z,34.61
2023-05-25T03:24:40.970Z,34.54
2023-05-25T03:25:40.987Z,34.53
2023-05-25T03:26:41.018Z,34.53
2023-05-25T03:27:41.030Z,34.54
2023-05-25T03:28:41.077Z,34.49
2023-05-25T03:29:41.102Z,34.57
2023-05-25T03:30:41.114Z,34.50
2023-05-25T03:31:41.187Z,34.49
2023-05-25T03:32:41.197Z,34.52
2023-05-25T03:33:41.230Z,34.53
2023-05-25T03:34:41.264Z,34.47
2023-05-25T03:35:41.400Z,34.48
2023-05-25T03:36:41.350Z,34.42
2023-05-25T03:37:41.400Z,34.46
2023-05-25T03:38:41.448Z,34.42
2023-05-25T03:39:41.489Z,34.46
2023-05-25T03:40:41.512Z,34.48
2023-05-25T03:41:41.563Z,34.41
2023-05-25T03:42:41.608Z,34.45
2023-05-25T03:43:41.659Z,34.45
2023-05-25T03:44:41.692Z,34.43
2023-05-25T03:45:41.778Z,34.45
2023-05-25T03:46:41.878Z,34.45
2023-05-25T03:47:41.833Z,34.47
2023-05-25T03:48:41.830Z,34.38
2023-05-25T03:49:41.874Z,34.48
2023-05-25T03:50:41.914Z,34.42
2023-05-25T03:51:41.938Z,34.43
2023-05-25T03:52:41.970Z,34.46
2023-05-25T03:53:42.015Z,34.49
2023-05-25T03:54:42.024Z,34.43
2023-05-25T03:55:42.116Z,34.47
2023-05-25T03:56:42.102Z,34.43
2023-05-25T03:57:42.149Z,34.48
2023-05-25T03:58:42.178Z,34.45
2023-05-25T03:59:42.204Z,34.46
2023-05-25T04:00:42.248Z,34.43
2023-05-25T04:01:42.301Z,34.43
2023-05-25T04:02:42.402Z,34.45
2023-05-25T04:03:42.521Z,34.43
2023-05-25T04:04:42.435Z,34.45
2023-05-25T04:05:42.588Z,34.42
2023-05-25T04:06:42.458Z,34.40
2023-05-25T04:07:42.486Z,34.41
2023-05-25T04:08:42.533Z,34.42
2023-05-25T04:09:42.544Z,34.46
2023-05-25T04:10:42.583Z,34.47
2023-05-25T04:11:42.624Z,34.45
2023-05-25T04:12:42.621Z,34.42
2023-05-25T04:13:42.648Z,34.42
2023-05-25T04:14:42.698Z,34.42
2023-05-25T04:15:42.890Z,34.41
2023-05-25T04:16:42.804Z,34.38
2023-05-25T04:17:42.825Z,34.38
2023-05-25T04:18:42.813Z,34.40
2023-05-25T04:19:42.853Z,34.41
2023-05-25T04:20:43.021Z,34.40
2023-05-25T04:21:42.931Z,34.37
2023-05-25T04:22:42.975Z,34.39
2023-05-25T04:23:43.023Z,34.35
2023-05-25T04:24:43.045Z,34.30
2023-05-25T04:25:43.107Z,34.34
2023-05-25T04:26:43.125Z,34.35
2023-05-25T04:27:43.167Z,34.36
2023-05-25T04:28:43.184Z,34.31
2023-05-25T04:29:43.247Z,34.32
2023-05-25T04:30:43.261Z,34.33
2023-05-25T04:31:43.362Z,34.30
2023-05-25T04:32:45.206Z,34.31
2023-05-25T04:33:43.419Z,34.30
2023-05-25T04:34:43.456Z,34.28
2023-05-25T04:35:43.716Z,34.29
2023-05-25T04:36:43.503Z,34.31
2023-05-25T04:37:43.532Z,34.29
2023-05-25T04:38:43.573Z,34.30
2023-05-25T04:39:43.607Z,34.29
2023-05-25T04:40:43.662Z,34.32
2023-05-25T04:41:43.691Z,34.28
2023-05-25T04:42:43.724Z,34.30
2023-05-25T04:43:53.185Z,34.29
2023-05-25T04:44:44.742Z,34.25
2023-05-25T04:45:44.036Z,34.35
2023-05-25T04:46:43.744Z,34.31
2023-05-25T04:47:43.776Z,34.32
2023-05-25T04:48:43.717Z,34.28
2023-05-25T04:49:43.710Z,34.28
2023-05-25T04:50:43.712Z,34.31
2023-05-25T04:51:43.694Z,34.30
2023-05-25T04:52:43.728Z,34.32
2023-05-25T04:53:43.682Z,34.28
2023-05-25T04:54:43.684Z,34.33
2023-05-25T04:55:43.865Z,34.35
2023-05-25T04:56:43.656Z,34.35
2023-05-25T04:57:43.719Z,34.31
2023-05-25T04:58:43.774Z,34.32
2023-05-25T04:59:43.845Z,34.29
2023-05-25T05:00:44.081Z,34.32
2023-05-25T05:01:44.033Z,34.29
2023-05-25T05:02:44.061Z,34.33
2023-05-25T05:03:44.101Z,34.26
2023-05-25T05:04:44.111Z,34.23
2023-05-25T05:05:44.376Z,34.31
2023-05-25T05:06:44.189Z,34.26
2023-05-25T05:07:44.205Z,34.28
2023-05-25T05:08:44.288Z,34.28
2023-05-25T05:09:44.319Z,34.30
2023-05-25T05:10:44.601Z,34.33
2023-05-25T05:11:44.434Z,34.30
2023-05-25T05:12:44.493Z,34.32
2023-05-25T05:13:44.546Z,34.31
2023-05-25T05:14:44.589Z,34.32
2023-05-25T05:15:44.955Z,34.35
2023-05-25T05:16:44.710Z,34.30
2023-05-25T05:17:44.756Z,34.35
2023-05-25T05:18:44.779Z,34.35
2023-05-25T05:19:44.849Z,34.33
2023-05-25T05:20:44.968Z,34.32
2023-05-25T05:21:44.958Z,34.32
2023-05-25T05:22:45.023Z,34.36
2023-05-25T05:23:45.108Z,34.37
2023-05-25T05:24:45.139Z,34.35
2023-05-25T05:25:45.385Z,34.36
2023-05-25T05:26:57.439Z,34.35
2023-05-25T05:27:46.249Z,34.32
2023-05-25T05:28:45.235Z,34.31
2023-05-25T05:29:45.243Z,34.65
2023-05-25T05:30:45.205Z,34.97
2023-05-25T05:31:45.251Z,35.44
2023-05-25T05:32:46.717Z,35.57
2023-05-25T05:33:45.262Z,35.48
2023-05-25T05:34:45.193Z,35.82
2023-05-25T05:35:45.309Z,35.73
2023-05-25T05:36:56.688Z,35.57
2023-05-25T05:37:46.200Z,35.56
2023-05-25T05:38:45.169Z,35.77
2023-05-25T05:39:45.179Z,36.43
2023-05-25T05:40:45.171Z,36.47
2023-05-25T05:41:45.162Z,35.98
2023-05-25T05:42:45.178Z,35.84
2023-05-25T05:43:45.275Z,35.79
2023-05-25T05:44:45.139Z,36.14
2023-05-25T05:45:45.568Z,35.71
2023-05-25T05:46:45.162Z,35.72
2023-05-25T05:47:45.188Z,35.91
2023-05-25T05:48:45.112Z,36.17
2023-05-25T05:49:45.088Z,35.83
2023-05-25T05:50:45.108Z,35.76
2023-05-25T05:51:45.116Z,35.68
2023-05-25T05:52:45.109Z,35.87
2023-05-25T05:53:45.073Z,35.85
2023-05-25T05:54:45.113Z,35.74
2023-05-25T05:55:46.966Z,35.73
2023-05-25T05:56:45.130Z,35.72
2023-05-25T05:57:45.105Z,35.82
2023-05-25T05:58:45.095Z,35.96
2023-05-25T05:59:45.102Z,35.96
2023-05-25T06:00:45.092Z,35.94
2023-05-25T06:01:45.104Z,36.03
2023-05-25T06:02:45.150Z,35.96
2023-05-25T06:03:45.059Z,36.05
2023-05-25T06:04:45.058Z,36.02
2023-05-25T06:05:45.333Z,35.98
2023-05-25T06:06:45.059Z,36.02
2023-05-25T06:07:45.031Z,36.01
2023-05-25T06:08:45.038Z,35.98
2023-05-25T06:09:45.033Z,35.93
2023-05-25T06:10:45.015Z,35.84
2023-05-25T06:11:45.034Z,35.91
2023-05-25T06:12:44.996Z,35.92
2023-05-25T06:13:46.597Z,35.91
2023-05-25T06:14:44.979Z,35.90
2023-05-25T06:15:45.244Z,35.87
2023-05-25T06:16:44.998Z,35.89
2023-05-25T06:17:45.000Z,35.94
2023-05-25T06:18:44.956Z,35.93
2023-05-25T06:19:44.952Z,35.95
2023-05-25T06:20:45.027Z,35.98
2023-05-25T06:21:44.949Z,35.93
2023-05-25T06:22:44.933Z,36.00
2023-05-25T06:23:44.929Z,35.95
2023-05-25T06:24:44.930Z,35.95
2023-05-25T06:25:45.097Z,35.92
2023-05-25T06:26:44.925Z,35.88
2023-05-25T06:27:44.891Z,35.77
2023-05-25T06:28:44.912Z,35.76
2023-05-25T06:29:44.925Z,35.80
2023-05-25T06:30:44.891Z,35.19
2023-05-25T06:31:44.931Z,35.82
2023-05-25T06:32:44.891Z,36.26
2023-05-25T06:33:45.290Z,36.06
2023-05-25T06:34:44.858Z,36.11
2023-05-25T06:35:46.714Z,37.31
2023-05-25T06:36:44.844Z,36.17
2023-05-25T06:37:44.847Z,35.61
2023-05-25T06:38:45.262Z,35.70
2023-05-25T06:39:44.892Z,36.04
2023-05-25T06:40:44.884Z,35.96
2023-05-25T06:41:44.920Z,35.95
2023-05-25T06:42:44.938Z,36.05
2023-05-25T06:43:44.997Z,36.11
2023-05-25T06:44:45.044Z,36.06
2023-05-25T06:45:45.370Z,35.97
2023-05-25T06:46:45.262Z,35.93
2023-05-25T06:47:45.277Z,35.93
2023-05-25T06:48:45.257Z,35.98
2023-05-25T06:49:45.321Z,36.00
2023-05-25T06:50:45.354Z,35.99
2023-05-25T06:51:45.428Z,36.12
2023-05-25T06:52:45.481Z,36.09
2023-05-25T06:53:45.779Z,36.07
2023-05-25T06:54:45.577Z,36.09
2023-05-25T06:55:45.885Z,36.05
2023-05-25T06:56:45.694Z,36.03
2023-05-25T06:57:45.734Z,35.96
2023-05-25T06:58:46.283Z,35.99
2023-05-25T06:59:45.850Z,36.02
2023-05-25T07:00:46.842Z,36.12
2023-05-25T07:01:45.953Z,36.51
2023-05-25T07:02:46.042Z,36.91
2023-05-25T07:03:46.285Z,36.97
2023-05-25T07:04:46.168Z,37.50
2023-05-25T07:05:46.261Z,37.53
2023-05-25T07:06:46.141Z,38.16
2023-05-25T07:07:46.119Z,38.01
2023-05-25T07:08:46.315Z,38.02
2023-05-25T07:09:46.091Z,37.94
2023-05-25T07:10:47.138Z,38.20
2023-05-25T07:11:46.198Z,38.01
2023-05-25T07:12:46.251Z,38.14
2023-05-25T07:13:46.347Z,37.85
2023-05-25T07:14:46.306Z,37.66
2023-05-25T07:15:46.967Z,37.72
2023-05-25T07:16:46.433Z,38.35
2023-05-25T07:17:46.436Z,38.40
2023-05-25T07:18:46.795Z,38.54
2023-05-25T07:19:46.451Z,38.50
2023-05-25T07:20:46.548Z,38.49
2023-05-25T07:21:46.475Z,38.59
2023-05-25T07:22:46.509Z,38.85
2023-05-25T07:23:46.798Z,39.02
2023-05-25T07:24:46.551Z,39.15
2023-05-25T07:25:46.761Z,39.22
2023-05-25T07:26:46.631Z,39.56
2023-05-25T07:27:46.680Z,39.82
2023-05-25T07:28:46.798Z,40.33
2023-05-25T07:29:46.764Z,39.97
2023-05-25T07:30:46.827Z,39.94
2023-05-25T07:31:46.911Z,39.91
2023-05-25T07:32:46.909Z,39.55
2023-05-25T07:33:46.898Z,39.29
2023-05-25T07:34:46.885Z,39.07
2023-05-25T07:35:47.063Z,38.97
2023-05-25T07:36:46.993Z,38.82
2023-05-25T07:37:47.007Z,38.69
2023-05-25T07:38:47.307Z,38.58
2023-05-25T07:39:47.097Z,38.44
2023-05-25T07:40:47.112Z,38.22
2023-05-25T07:41:47.109Z,38.03
2023-05-25T07:42:47.137Z,37.82
2023-05-25T07:43:47.314Z,37.76
2023-05-25T07:44:47.126Z,37.50
2023-05-25T07:45:47.268Z,37.52
2023-05-25T07:46:47.141Z,37.33
2023-05-25T07:47:47.185Z,37.23
2023-05-25T07:48:47.187Z,37.16
2023-05-25T07:49:47.194Z,36.90
2023-05-25T07:50:47.218Z,36.88
2023-05-25T07:51:47.234Z,36.85
2023-05-25T07:52:47.239Z,36.78
2023-05-25T07:53:47.219Z,36.74
2023-05-25T07:54:47.268Z,36.57
2023-05-25T07:55:47.390Z,36.47
2023-05-25T07:56:47.273Z,36.33
2023-05-25T07:57:47.341Z,36.19
2023-05-25T07:58:47.836Z,36.20
2023-05-25T07:59:47.457Z,36.09
2023-05-25T08:00:47.477Z,36.03
2023-05-25T08:01:47.590Z,35.87
2023-05-25T08:02:47.648Z,35.78
2023-05-25T08:03:49.983Z,35.37
2023-05-25T08:04:47.613Z,35.29
2023-05-25T08:05:47.545Z,35.37
2023-05-25T08:06:47.526Z,35.18
2023-05-25T08:07:47.532Z,35.19
2023-05-25T08:08:47.814Z,35.26
2023-05-25T08:09:47.491Z,35.19
2023-05-25T08:10:47.500Z,35.42
2023-05-25T08:11:47.485Z,35.11
2023-05-25T08:12:49.636Z,35.22
2023-05-25T08:13:47.817Z,34.93
2023-05-25T08:14:47.467Z,34.84
2023-05-25T08:15:47.447Z,34.56
2023-05-25T08:16:47.478Z,34.40
2023-05-25T08:17:47.462Z,34.46
2023-05-25T08:18:47.870Z,34.53
2023-05-25T08:19:47.422Z,34.61
2023-05-25T08:20:47.494Z,34.53
2023-05-25T08:21:47.424Z,34.25
2023-05-25T08:22:47.815Z,34.40
2023-05-25T08:23:47.869Z,34.43
2023-05-25T08:24:47.406Z,34.36
2023-05-25T08:25:47.561Z,34.50
2023-05-25T08:27:48.389Z,34.62
2023-05-25T08:28:47.806Z,34.60
2023-05-25T08:29:47.373Z,34.66
2023-05-25T08:30:47.409Z,34.60
2023-05-25T08:31:47.355Z,34.66
2023-05-25T08:32:47.509Z,34.67
2023-05-25T08:33:47.343Z,34.67
2023-05-25T08:34:47.354Z,34.62
2023-05-25T08:35:47.408Z,34.61
2023-05-25T08:36:47.334Z,34.73
2023-05-25T08:37:47.314Z,35.02
2023-05-25T08:38:47.814Z,34.91
2023-05-25T08:39:47.417Z,35.12
2023-05-25T08:40:47.427Z,35.30
2023-05-25T08:41:47.446Z,35.47
2023-05-25T08:42:47.469Z,35.51
2023-05-25T08:43:47.472Z,35.86
2023-05-25T08:44:47.483Z,36.00
2023-05-25T08:45:47.651Z,36.15
2023-05-25T08:46:47.505Z,36.32
2023-05-25T08:47:47.677Z,36.43
2023-05-25T08:48:47.629Z,36.45
2023-05-25T08:49:47.956Z,36.38
2023-05-25T08:50:47.563Z,36.39
2023-05-25T08:51:47.480Z,36.43
2023-05-25T08:52:47.500Z,36.46
2023-05-25T08:53:47.482Z,36.47
2023-05-25T08:54:47.509Z,36.47
2023-05-25T08:55:47.596Z,36.42
2023-05-25T08:56:47.469Z,36.36
2023-05-25T08:57:47.474Z,36.49
2023-05-25T08:58:47.810Z,36.40
2023-05-25T08:59:47.481Z,36.30
2023-05-25T09:00:47.433Z,36.40
2023-05-25T09:01:47.538Z,36.36
2023-05-25T09:02:47.740Z,36.35
2023-05-25T09:03:47.550Z,36.31
2023-05-25T09:04:47.513Z,36.32
2023-05-25T09:05:47.481Z,36.31
2023-05-25T09:06:57.318Z,36.32
2023-05-25T09:07:48.471Z,36.26
2023-05-25T09:08:47.548Z,36.22
2023-05-25T09:09:47.452Z,36.12
2023-05-25T09:10:47.428Z,36.12
2023-05-25T09:11:47.441Z,36.17
2023-05-25T09:12:47.443Z,36.12
2023-05-25T09:13:47.453Z,36.03
2023-05-25T09:14:47.430Z,36.00
2023-05-25T09:15:47.408Z,36.06
2023-05-25T09:16:47.505Z,36.06
2023-05-25T09:17:47.433Z,36.01
2023-05-25T09:18:47.824Z,36.05
2023-05-25T09:19:47.388Z,36.06
2023-05-25T09:20:48.016Z,36.06
2023-05-25T09:21:47.393Z,36.04
2023-05-25T09:22:47.381Z,36.01
2023-05-25T09:23:47.819Z,35.98
2023-05-25T09:24:47.384Z,35.91
2023-05-25T09:25:47.422Z,35.89
2023-05-25T09:26:48.256Z,35.78
2023-05-25T09:27:47.538Z,35.81
2023-05-25T09:28:47.874Z,35.41
2023-05-25T09:29:47.614Z,35.23
2023-05-25T09:30:47.682Z,35.28
2023-05-25T09:31:47.792Z,35.26
2023-05-25T09:32:47.811Z,35.42
2023-05-25T09:33:48.370Z,35.04
2023-05-25T09:34:47.910Z,35.18
2023-05-25T09:35:47.936Z,34.75
2023-05-25T09:36:48.532Z,34.41
2023-05-25T09:37:48.243Z,34.14
2023-05-25T09:38:48.162Z,33.78
2023-05-25T09:39:48.213Z,33.72
2023-05-25T09:40:48.292Z,33.71
2023-05-25T09:41:48.369Z,33.72
2023-05-25T09:42:48.240Z,33.71
2023-05-25T09:43:58.130Z,33.52
2023-05-25T09:44:49.313Z,33.61
2023-05-25T09:45:48.342Z,33.55
2023-05-25T09:46:48.364Z,33.59
2023-05-25T09:47:48.325Z,33.63
2023-05-25T09:48:48.260Z,33.64
2023-05-25T09:49:48.273Z,33.57
2023-05-25T09:50:49.923Z,33.40
2023-05-25T09:51:48.264Z,33.38
2023-05-25T09:52:48.259Z,33.38
2023-05-25T09:53:48.269Z,33.38
2023-05-25T09:54:48.309Z,33.40
2023-05-25T09:55:53.945Z,33.33
2023-05-25T09:56:49.344Z,33.28
2023-05-25T09:57:48.337Z,33.39
2023-05-25T09:58:48.306Z,33.52
2023-05-25T09:59:48.346Z,33.50
2023-05-25T10:00:48.318Z,33.57
2023-05-25T10:01:48.334Z,33.54
2023-05-25T10:02:48.340Z,33.64
2023-05-25T10:03:59.757Z,33.68
2023-05-25T10:04:49.391Z,33.82
2023-05-25T10:05:48.428Z,33.84
2023-05-25T10:06:48.297Z,33.71
2023-05-25T10:07:48.254Z,33.70
2023-05-25T10:08:48.272Z,33.59
2023-05-25T10:09:48.250Z,33.60
2023-05-25T10:10:48.233Z,33.45
2023-05-25T10:11:48.221Z,33.53
2023-05-25T10:12:48.220Z,33.46
2023-05-25T10:13:48.212Z,33.25
2023-05-25T10:14:48.213Z,33.25
2023-05-25T10:15:48.275Z,33.33
2023-05-25T10:16:48.218Z,33.09
2023-05-25T10:17:48.193Z,33.32
2023-05-25T10:18:48.187Z,33.22
2023-05-25T10:19:48.352Z,33.25
2023-05-25T10:20:48.236Z,33.19
2023-05-25T10:21:48.176Z,33.12
2023-05-25T10:22:48.144Z,33.67
2023-05-25T10:23:48.151Z,34.21
2023-05-25T10:24:48.449Z,34.35
2023-05-25T10:25:48.141Z,34.36
2023-05-25T10:26:48.130Z,34.36
2023-05-25T10:27:48.116Z,34.33
2023-05-25T10:28:48.163Z,34.41
2023-05-25T10:29:48.211Z,34.64
2023-05-25T10:30:48.266Z,34.76
2023-05-25T10:31:48.360Z,34.82
2023-05-25T10:32:48.462Z,34.68
2023-05-25T10:33:52.142Z,34.29
2023-05-25T10:34:48.380Z,34.16
2023-05-25T10:36:02.141Z,34.21
2023-05-25T10:36:49.374Z,34.18
2023-05-25T10:37:48.367Z,34.27
2023-05-25T10:38:48.364Z,34.19
2023-05-25T10:39:48.352Z,34.08
2023-05-25T10:40:48.340Z,34.00
2023-05-25T10:41:48.338Z,33.74
2023-05-25T10:42:48.330Z,34.11
2023-05-25T10:43:48.319Z,34.07
2023-05-25T10:44:48.370Z,34.06
2023-05-25T10:45:48.313Z,34.05
2023-05-25T10:46:48.342Z,34.07
2023-05-25T10:47:48.358Z,33.86
2023-05-25T10:48:48.293Z,33.70
2023-05-25T10:49:48.371Z,33.72
2023-05-25T10:50:48.258Z,33.50
2023-05-25T10:51:48.266Z,33.13
2023-05-25T10:52:48.274Z,32.98
2023-05-25T10:53:48.263Z,33.04
2023-05-25T10:54:48.246Z,32.73
2023-05-25T10:55:48.288Z,32.85
2023-05-25T10:56:48.301Z,32.91
2023-05-25T10:57:48.358Z,32.82
2023-05-25T10:58:48.399Z,33.38
2023-05-25T10:59:48.873Z,33.31
2023-05-25T11:00:48.587Z,32.99
2023-05-25T11:01:48.590Z,32.83
2023-05-25T11:02:48.653Z,33.20
2023-05-25T11:03:48.868Z,32.94
2023-05-25T11:04:48.888Z,32.95
2023-05-25T11:05:48.764Z,32.88
2023-05-25T11:06:48.817Z,33.00
2023-05-25T11:07:48.863Z,32.96
2023-05-25T11:08:48.934Z,32.73
2023-05-25T11:09:48.948Z,32.86
2023-05-25T11:10:49.021Z,33.26
2023-05-25T11:11:49.072Z,33.66
2023-05-25T11:12:49.135Z,34.14
2023-05-25T11:13:49.191Z,34.06
2023-05-25T11:14:49.240Z,34.10
2023-05-25T11:15:49.410Z,33.83
2023-05-25T11:16:49.420Z,33.90
2023-05-25T11:17:49.452Z,33.70
2023-05-25T11:18:49.475Z,33.76
2023-05-25T11:19:51.155Z,33.61
2023-05-25T11:20:49.636Z,33.54
2023-05-25T11:21:49.645Z,33.59
2023-05-25T11:22:52.293Z,34.01
2023-05-25T11:23:49.698Z,33.87
2023-05-25T11:24:49.682Z,34.09
2023-05-25T11:25:49.700Z,34.38
2023-05-25T11:26:49.680Z,34.78
2023-05-25T11:27:49.691Z,34.47
2023-05-25T11:28:49.693Z,34.51
2023-05-25T11:29:49.672Z,34.51
2023-05-25T11:30:49.708Z,34.48
2023-05-25T11:31:49.797Z,34.44
2023-05-25T11:32:49.702Z,34.48
2023-05-25T11:33:49.645Z,34.48
2023-05-25T11:34:49.619Z,34.54
2023-05-25T11:35:49.653Z,34.64
2023-05-25T11:36:49.630Z,34.66
2023-05-25T11:37:49.602Z,34.67
2023-05-25T11:39:02.498Z,34.56
2023-05-25T11:39:50.603Z,34.61
2023-05-25T11:40:49.777Z,34.61
2023-05-25T11:41:49.601Z,34.69
2023-05-25T11:42:49.593Z,34.68
2023-05-25T11:43:49.584Z,34.73
2023-05-25T11:44:49.553Z,34.79
2023-05-25T11:45:49.586Z,34.79
2023-05-25T11:46:49.657Z,34.74
2023-05-25T11:47:49.571Z,34.76
2023-05-25T11:48:49.521Z,34.79
2023-05-25T11:49:49.533Z,34.81
2023-05-25T11:50:49.563Z,34.86
2023-05-25T11:51:49.609Z,34.89
2023-05-25T11:52:49.652Z,34.86
2023-05-25T11:53:49.702Z,34.89
2023-05-25T11:54:49.792Z,34.85
2023-05-25T11:55:50.911Z,34.85
2023-05-25T11:56:49.841Z,34.83
2023-05-25T11:57:49.901Z,34.83
2023-05-25T11:58:49.919Z,34.90
2023-05-25T11:59:49.997Z,34.88
2023-05-25T12:00:50.024Z,34.89
2023-05-25T12:01:50.083Z,34.89
2023-05-25T12:02:50.217Z,34.90
2023-05-25T12:03:50.345Z,34.89
2023-05-25T12:04:50.280Z,34.88
2023-05-25T12:05:50.279Z,34.88
2023-05-25T12:06:50.379Z,34.89
2023-05-25T12:07:50.389Z,34.84
2023-05-25T12:08:50.429Z,34.90
2023-05-25T12:09:50.479Z,34.91
2023-05-25T12:10:50.644Z,34.91
2023-05-25T12:11:50.552Z,34.88
2023-05-25T12:12:50.615Z,34.84
2023-05-25T12:13:50.656Z,34.91
2023-05-25T12:14:50.706Z,34.88
2023-05-25T12:15:50.753Z,34.89
2023-05-25T12:16:50.830Z,34.86
2023-05-25T12:17:50.960Z,34.86
2023-05-25T12:18:50.932Z,34.84
2023-05-25T12:19:51.160Z,34.82
2023-05-25T12:20:51.066Z,34.81
2023-05-25T12:21:51.041Z,34.82
2023-05-25T12:22:51.114Z,34.87
2023-05-25T12:23:51.145Z,34.82
2023-05-25T12:24:51.195Z,34.86
2023-05-25T12:25:51.514Z,34.79
2023-05-25T12:26:51.297Z,34.85
2023-05-25T12:27:51.354Z,34.84
2023-05-25T12:28:51.389Z,34.77
2023-05-25T12:29:51.451Z,34.77
2023-05-25T12:30:51.518Z,34.77
2023-05-25T12:31:51.557Z,34.85
2023-05-25T12:32:51.714Z,34.84
2023-05-25T12:33:51.685Z,34.80
2023-05-25T12:34:51.740Z,34.82
2023-05-25T12:35:51.789Z,34.85
2023-05-25T12:36:51.873Z,34.84
2023-05-25T12:37:51.883Z,34.80
2023-05-25T12:38:51.933Z,34.80
2023-05-25T12:39:51.987Z,34.80
2023-05-25T12:40:52.041Z,34.82
2023-05-25T12:41:54.591Z,34.75
2023-05-25T12:42:52.137Z,34.77
2023-05-25T12:43:52.149Z,34.81
2023-05-25T12:44:52.106Z,34.75
2023-05-25T12:45:52.075Z,34.77
2023-05-25T12:46:52.120Z,34.82
2023-05-25T12:47:52.115Z,34.83
2023-05-25T12:48:52.156Z,34.85
2023-05-25T12:49:52.085Z,34.81
2023-05-25T12:50:53.543Z,34.84
2023-05-25T12:51:52.040Z,34.82
2023-05-25T12:52:52.008Z,34.84
2023-05-25T12:53:52.150Z,34.82